createdAt,value
2019-03-13T00:02:46.900Z,4.67
2019-03-13T00:05:44.778Z,4.70
2019-03-13T00:08:42.499Z,4.71
2019-03-13T00:11:38.288Z,4.75
2019-03-13T00:14:35.005Z,4.76
2019-03-13T00:17:30.550Z,4.76
2019-03-13T00:20:27.464Z,4.78
2019-03-13T00:23:25.229Z,4.80
2019-03-13T00:26:22.697Z,4.84
2019-03-13T00:29:19.315Z,4.90
2019-03-13T00:32:15.323Z,5.03
2019-03-13T00:35:11.920Z,5.18
2019-03-13T00:38:07.619Z,5.33
2019-03-13T00:41:05.314Z,5.42
2019-03-13T00:44:02.271Z,5.46
2019-03-13T00:46:57.453Z,5.47
2019-03-13T00:49:54.880Z,5.45
2019-03-13T00:52:50.569Z,5.45
2019-03-13T00:55:47.134Z,5.46
2019-03-13T00:58:42.934Z,5.38
2019-03-13T01:01:59.895Z,5.26
2019-03-13T01:05:00.571Z,5.18
2019-03-13T01:07:55.823Z,5.11
2019-03-13T01:10:54.388Z,5.07
2019-03-13T01:13:50.624Z,5.04
2019-03-13T01:16:46.051Z,5.05
2019-03-13T01:19:43.629Z,5.09
2019-03-13T01:22:40.264Z,5.15
2019-03-13T01:25:37.786Z,5.23
2019-03-13T01:28:32.569Z,5.42
2019-03-13T01:31:42.228Z,5.45
2019-03-13T01:34:48.758Z,5.42
2019-03-13T01:37:44.332Z,5.42
2019-03-13T01:40:41.605Z,5.44
2019-03-13T01:43:37.386Z,5.74
2019-03-13T01:46:33.741Z,6.14
2019-03-13T01:49:30.150Z,6.51
2019-03-13T01:52:26.535Z,6.78
2019-03-13T01:55:23.343Z,6.88
2019-03-13T01:58:18.880Z,6.96
2019-03-13T02:01:16.676Z,7.08
2019-03-13T02:04:13.134Z,7.18
2019-03-13T02:07:09.140Z,7.29
2019-03-13T02:10:05.929Z,7.42
2019-03-13T02:13:01.065Z,7.58
2019-03-13T02:15:57.672Z,7.67
2019-03-13T02:18:53.443Z,7.77
2019-03-13T02:21:49.985Z,8.00
2019-03-13T02:24:46.487Z,8.17
2019-03-13T02:27:41.206Z,8.36
2019-03-13T02:30:38.400Z,8.43
2019-03-13T02:33:33.668Z,8.53
2019-03-13T02:36:30.327Z,8.61
2019-03-13T02:39:26.160Z,8.54
2019-03-13T02:42:23.737Z,8.65
2019-03-13T02:45:20.551Z,8.63
2019-03-13T02:48:15.922Z,8.57
2019-03-13T02:51:13.373Z,8.58
2019-03-13T02:54:08.948Z,8.57
2019-03-13T02:57:05.514Z,8.53
2019-03-13T03:00:00.641Z,8.45
2019-03-13T03:03:05.783Z,8.40
2019-03-13T03:06:01.569Z,8.29
2019-03-13T03:08:58.173Z,8.24
2019-03-13T03:11:55.945Z,8.19
2019-03-13T03:14:51.532Z,8.21
2019-03-13T03:17:48.112Z,8.17
2019-03-13T03:20:46.489Z,8.10
2019-03-13T03:23:45.286Z,8.02
2019-03-13T03:26:37.733Z,7.93
2019-03-13T03:29:38.443Z,7.84
2019-03-13T03:32:31.901Z,7.78
2019-03-13T03:35:29.534Z,7.74
2019-03-13T03:38:25.093Z,7.68
2019-03-13T03:41:21.813Z,7.63
2019-03-13T03:44:17.354Z,7.61
2019-03-13T03:47:14.403Z,7.53
2019-03-13T03:50:10.851Z,7.45
2019-03-13T03:53:06.476Z,7.41
2019-03-13T03:56:05.382Z,7.39
2019-03-13T03:59:00.765Z,7.34
2019-03-13T04:01:57.889Z,7.32
2019-03-13T04:04:54.695Z,7.26
2019-03-13T04:07:51.278Z,7.23
2019-03-13T04:10:47.836Z,7.20
2019-03-13T04:13:45.566Z,7.13
2019-03-13T04:16:41.747Z,7.07
2019-03-13T04:19:36.897Z,7.00
2019-03-13T04:22:34.529Z,6.91
2019-03-13T04:25:49.715Z,6.84
2019-03-13T04:28:45.550Z,6.80
2019-03-13T04:31:41.846Z,6.70
2019-03-13T04:34:37.394Z,6.65
2019-03-13T04:37:33.932Z,6.60
2019-03-13T04:40:30.635Z,6.51
2019-03-13T04:43:26.760Z,6.42
2019-03-13T04:46:22.862Z,6.40
2019-03-13T04:49:18.389Z,6.37
2019-03-13T04:52:15.032Z,6.29
2019-03-13T04:55:10.611Z,6.20
2019-03-13T04:58:07.408Z,6.17
2019-03-13T05:01:03.127Z,6.12
2019-03-13T05:04:01.000Z,6.06
2019-03-13T05:06:57.628Z,6.01
2019-03-13T05:09:56.050Z,5.98
2019-03-13T05:12:52.778Z,5.92
2019-03-13T05:15:49.580Z,5.88
2019-03-13T05:18:46.318Z,5.83
2019-03-13T05:21:41.181Z,5.79
2019-03-13T05:24:38.962Z,5.75
2019-03-13T05:27:37.182Z,5.73
2019-03-13T05:30:33.913Z,5.69
2019-03-13T05:33:31.446Z,5.67
2019-03-13T05:36:28.178Z,5.62
2019-03-13T05:39:23.222Z,5.57
2019-03-13T05:42:19.808Z,5.56
2019-03-13T05:45:15.623Z,5.54
2019-03-13T05:48:12.588Z,5.53
2019-03-13T05:51:09.396Z,5.53
2019-03-13T05:54:06.078Z,5.50
2019-03-13T05:57:01.661Z,5.48
2019-03-13T05:59:58.548Z,5.46
2019-03-13T06:02:54.556Z,5.44
2019-03-13T06:05:51.066Z,5.43
2019-03-13T06:08:46.565Z,5.42
2019-03-13T06:11:42.127Z,5.41
2019-03-13T06:14:38.663Z,5.40
2019-03-13T06:17:34.272Z,5.38
2019-03-13T06:20:31.051Z,5.38
2019-03-13T06:23:28.236Z,5.39
2019-03-13T06:26:23.767Z,5.40
2019-03-13T06:29:21.016Z,5.43
2019-03-13T06:32:15.967Z,5.47
2019-03-13T06:35:13.580Z,5.49
2019-03-13T06:38:10.543Z,5.54
2019-03-13T06:41:06.189Z,5.54
2019-03-13T06:44:04.341Z,5.59
2019-03-13T06:46:59.781Z,5.60
2019-03-13T06:50:01.171Z,5.59
2019-03-13T06:52:58.093Z,5.63
2019-03-13T06:55:53.838Z,5.61
2019-03-13T06:58:56.756Z,5.59
2019-03-13T07:02:06.293Z,5.56
2019-03-13T07:05:27.611Z,5.54
2019-03-13T07:08:33.434Z,5.51
2019-03-13T07:11:41.352Z,5.50
2019-03-13T07:15:06.048Z,5.49
2019-03-13T07:18:13.963Z,5.50
2019-03-13T07:21:23.458Z,5.49
2019-03-13T07:24:36.381Z,5.53
2019-03-13T07:28:03.522Z,5.56
2019-03-13T07:31:11.941Z,5.58
2019-03-13T07:34:20.224Z,5.69
2019-03-13T07:37:32.151Z,5.69
2019-03-13T07:40:41.166Z,5.74
2019-03-13T07:43:54.153Z,5.84
2019-03-13T07:47:01.125Z,5.98
2019-03-13T07:50:07.917Z,6.09
2019-03-13T07:53:19.042Z,6.09
2019-03-13T07:56:32.353Z,6.02
2019-03-13T07:59:49.864Z,6.00
2019-03-13T08:03:06.375Z,6.01
2019-03-13T08:06:14.796Z,6.09
2019-03-13T08:09:22.814Z,6.21
2019-03-13T08:12:27.519Z,6.26
2019-03-13T08:15:37.442Z,6.33
2019-03-13T08:19:00.959Z,6.38
2019-03-13T08:22:09.123Z,6.39
2019-03-13T08:25:26.733Z,6.37
2019-03-13T08:28:35.210Z,6.47
2019-03-13T08:31:44.674Z,6.43
2019-03-13T08:35:03.914Z,6.32
2019-03-13T08:38:17.740Z,6.44
2019-03-13T08:41:30.321Z,6.67
2019-03-13T08:44:45.509Z,6.81
2019-03-13T08:47:54.992Z,7.00
2019-03-13T08:50:57.544Z,7.12
2019-03-13T08:54:09.181Z,7.05
2019-03-13T08:57:18.092Z,6.94
2019-03-13T09:00:26.510Z,7.15
2019-03-13T09:03:40.061Z,7.31
2019-03-13T09:06:42.450Z,7.35
2019-03-13T09:09:51.478Z,7.49
2019-03-13T09:13:10.779Z,7.58
2019-03-13T09:16:14.346Z,7.68
2019-03-13T09:19:28.612Z,7.66
2019-03-13T09:22:35.801Z,7.42
2019-03-13T09:25:46.834Z,7.39
2019-03-13T09:28:57.975Z,7.37
2019-03-13T09:32:06.616Z,7.42
2019-03-13T09:35:16.514Z,7.41
2019-03-13T09:38:26.260Z,7.32
2019-03-13T09:41:28.883Z,7.23
2019-03-13T09:44:37.834Z,7.32
2019-03-13T09:47:40.169Z,7.54
2019-03-13T09:50:58.978Z,7.93
2019-03-13T09:54:05.173Z,8.17
2019-03-13T09:57:12.638Z,8.05
2019-03-13T10:00:29.263Z,7.95
2019-03-13T10:03:35.341Z,7.96
2019-03-13T10:06:49.886Z,7.80
2019-03-13T10:09:57.189Z,7.57
2019-03-13T10:13:05.956Z,7.43
2019-03-13T10:16:32.721Z,7.44
2019-03-13T10:19:43.043Z,7.63
2019-03-13T10:22:51.809Z,7.89
2019-03-13T10:25:58.993Z,7.89
2019-03-13T10:29:10.591Z,8.02
2019-03-13T10:32:20.723Z,8.41
2019-03-13T10:35:28.271Z,8.70
2019-03-13T10:38:32.707Z,8.87
2019-03-13T10:41:53.293Z,8.76
2019-03-13T10:45:07.767Z,8.71
2019-03-13T10:48:21.233Z,8.70
2019-03-13T10:51:30.413Z,8.77
2019-03-13T10:54:40.272Z,8.95
2019-03-13T10:57:49.565Z,9.08
2019-03-13T11:00:56.104Z,9.28
2019-03-13T11:04:05.111Z,9.35
2019-03-13T11:07:17.199Z,9.47
2019-03-13T11:10:34.655Z,9.66
2019-03-13T11:13:44.115Z,9.57
2019-03-13T11:16:55.060Z,9.63
2019-03-13T11:20:13.892Z,9.65
2019-03-13T11:23:29.870Z,9.66
2019-03-13T11:26:47.920Z,9.46
2019-03-13T11:29:55.055Z,9.33
2019-03-13T11:33:10.603Z,9.50
2019-03-13T11:36:23.820Z,9.63
2019-03-13T11:39:33.690Z,9.59
2019-03-13T11:42:53.211Z,9.38
2019-03-13T11:46:16.751Z,9.30
2019-03-13T11:49:26.935Z,9.48
2019-03-13T11:52:46.717Z,9.57
2019-03-13T11:55:50.771Z,9.58
2019-03-13T11:59:05.625Z,9.61
2019-03-13T12:02:16.228Z,9.62
2019-03-13T12:05:25.515Z,9.56
2019-03-13T12:08:40.714Z,9.45
2019-03-13T12:11:49.793Z,9.20
2019-03-13T12:15:00.504Z,9.07
2019-03-13T12:18:11.880Z,9.04
2019-03-13T12:21:37.664Z,9.02
2019-03-13T12:25:01.234Z,8.98
2019-03-13T12:28:09.283Z,8.98
2019-03-13T12:31:20.827Z,8.83
2019-03-13T12:34:33.326Z,8.69
2019-03-13T12:37:55.752Z,8.66
2019-03-13T12:41:10.265Z,8.76
2019-03-13T12:44:20.965Z,8.80
2019-03-13T12:47:28.870Z,9.05
2019-03-13T12:50:34.489Z,8.94
2019-03-13T12:53:36.591Z,8.86
2019-03-13T12:56:39.364Z,8.94
2019-03-13T12:59:48.180Z,8.93
2019-03-13T13:02:58.459Z,8.87
2019-03-13T13:06:16.080Z,8.52
2019-03-13T13:09:25.697Z,8.52
2019-03-13T13:12:35.381Z,8.57
2019-03-13T13:15:51.618Z,9.03
2019-03-13T13:19:10.511Z,9.33
2019-03-13T13:22:08.514Z,9.55
2019-03-13T13:25:04.026Z,9.70
2019-03-13T13:28:01.584Z,9.89
2019-03-13T13:30:58.117Z,9.95
2019-03-13T13:33:55.037Z,9.88
2019-03-13T13:36:49.750Z,9.96
2019-03-13T13:39:48.107Z,10.11
2019-03-13T13:42:42.507Z,10.14
2019-03-13T13:45:59.133Z,9.81
2019-03-13T13:48:54.820Z,9.50
2019-03-13T13:51:51.668Z,9.32
2019-03-13T13:54:47.189Z,9.17
2019-03-13T13:57:43.397Z,8.97
2019-03-13T14:00:39.923Z,8.83
2019-03-13T14:03:36.441Z,8.61
2019-03-13T14:06:31.904Z,7.98
2019-03-13T14:09:28.651Z,7.46
2019-03-13T14:12:25.001Z,7.10
2019-03-13T14:15:20.736Z,7.02
2019-03-13T14:18:17.642Z,7.19
2019-03-13T14:21:14.020Z,7.43
2019-03-13T14:24:10.566Z,7.84
2019-03-13T14:27:14.636Z,7.87
2019-03-13T14:30:05.029Z,7.69
2019-03-13T14:33:01.537Z,7.59
2019-03-13T14:35:58.092Z,7.87
2019-03-13T14:38:53.171Z,8.21
2019-03-13T14:41:50.641Z,8.57
2019-03-13T14:44:46.828Z,8.65
2019-03-13T14:47:43.356Z,8.93
2019-03-13T14:50:41.189Z,9.24
2019-03-13T14:53:36.751Z,9.59
2019-03-13T14:56:33.389Z,9.85
2019-03-13T14:59:29.398Z,9.93
2019-03-13T15:02:27.002Z,9.70
2019-03-13T15:05:23.847Z,9.27
2019-03-13T15:08:19.533Z,9.00
2019-03-13T15:11:16.602Z,9.84
2019-03-13T15:14:12.592Z,10.76
2019-03-13T15:17:09.290Z,10.88
2019-03-13T15:20:04.738Z,10.59
2019-03-13T15:23:01.598Z,10.56
2019-03-13T15:25:58.780Z,10.82
2019-03-13T15:28:54.279Z,11.00
2019-03-13T15:31:54.062Z,10.87
2019-03-13T15:34:49.694Z,10.91
2019-03-13T15:37:45.917Z,10.83
2019-03-13T15:40:42.261Z,10.00
2019-03-13T15:43:43.938Z,9.49
2019-03-13T15:46:39.810Z,9.52
2019-03-13T15:49:36.534Z,9.71
2019-03-13T15:52:33.468Z,9.72
2019-03-13T15:55:36.457Z,9.55
2019-03-13T15:58:38.951Z,9.43
2019-03-13T16:01:40.799Z,9.18
2019-03-13T16:04:47.849Z,8.85
2019-03-13T16:07:53.240Z,8.64
2019-03-13T16:10:51.215Z,8.58
2019-03-13T16:13:46.451Z,8.59
2019-03-13T16:16:44.709Z,8.56
2019-03-13T16:19:40.369Z,8.51
2019-03-13T16:22:38.202Z,8.46
2019-03-13T16:25:33.853Z,8.37
2019-03-13T16:28:30.550Z,8.25
2019-03-13T16:31:29.076Z,8.12
2019-03-13T16:34:25.280Z,7.85
2019-03-13T16:37:20.208Z,7.58
2019-03-13T16:40:18.330Z,7.42
2019-03-13T16:43:14.951Z,7.32
2019-03-13T16:46:11.595Z,7.18
2019-03-13T16:49:07.224Z,7.10
2019-03-13T16:52:04.306Z,6.94
2019-03-13T16:55:00.055Z,6.86
2019-03-13T16:57:56.885Z,6.82
2019-03-13T17:00:52.559Z,6.77
2019-03-13T17:03:48.567Z,6.67
2019-03-13T17:06:45.285Z,6.60
2019-03-13T17:09:40.995Z,6.53
2019-03-13T17:12:38.532Z,6.45
2019-03-13T17:15:36.186Z,6.37
2019-03-13T17:18:31.978Z,6.28
2019-03-13T17:21:28.449Z,6.21
2019-03-13T17:24:24.120Z,6.22
2019-03-13T17:27:20.432Z,6.22
2019-03-13T17:30:16.070Z,6.20
2019-03-13T17:33:12.978Z,6.20
2019-03-13T17:36:10.878Z,6.12
2019-03-13T17:39:07.891Z,6.04
2019-03-13T17:42:03.584Z,5.97
2019-03-13T17:44:59.391Z,5.93
2019-03-13T17:47:55.997Z,5.86
2019-03-13T17:50:52.698Z,5.82
2019-03-13T17:53:50.133Z,5.78
2019-03-13T17:56:46.767Z,5.73
2019-03-13T17:59:42.580Z,5.71
2019-03-13T18:02:39.123Z,5.70
2019-03-13T18:05:36.783Z,5.69
2019-03-13T18:08:32.530Z,5.65
2019-03-13T18:11:29.208Z,5.62
2019-03-13T18:14:29.379Z,5.62
2019-03-13T18:17:21.598Z,5.60
2019-03-13T18:20:17.271Z,5.58
2019-03-13T18:23:14.107Z,5.55
2019-03-13T18:26:10.798Z,5.52
2019-03-13T18:29:07.035Z,5.51
2019-03-13T18:32:03.752Z,5.47
2019-03-13T18:35:02.845Z,5.42
2019-03-13T18:37:59.678Z,5.35
2019-03-13T18:40:55.722Z,5.34
2019-03-13T18:43:51.740Z,5.34
2019-03-13T18:46:48.588Z,5.31
2019-03-13T18:49:45.674Z,5.26
2019-03-13T18:52:42.532Z,5.24
2019-03-13T18:55:39.712Z,5.22
2019-03-13T18:58:35.481Z,5.20
2019-03-13T19:01:32.962Z,5.18
2019-03-13T19:04:29.589Z,5.18
2019-03-13T19:07:26.552Z,5.19
2019-03-13T19:10:23.232Z,5.19
2019-03-13T19:13:20.210Z,5.17
2019-03-13T19:16:16.490Z,5.14
2019-03-13T19:19:12.610Z,5.13
2019-03-13T19:22:09.860Z,5.11
2019-03-13T19:25:06.807Z,5.13
2019-03-13T19:28:03.642Z,5.15
2019-03-13T19:30:58.949Z,5.20
2019-03-13T19:33:55.218Z,5.21
2019-03-13T19:36:53.712Z,5.22
2019-03-13T19:39:50.825Z,5.23
2019-03-13T19:42:47.595Z,5.25
2019-03-13T19:45:48.260Z,5.25
2019-03-13T19:48:46.028Z,5.23
2019-03-13T19:51:42.117Z,5.20
2019-03-13T19:54:39.861Z,5.21
2019-03-13T19:57:35.966Z,5.19
2019-03-13T20:00:34.392Z,5.19
2019-03-13T20:03:30.203Z,5.19
2019-03-13T20:06:28.473Z,5.20
2019-03-13T20:09:25.702Z,5.22
2019-03-13T20:12:21.636Z,5.21
2019-03-13T20:15:19.602Z,5.22
2019-03-13T20:18:15.825Z,5.24
2019-03-13T20:21:12.629Z,5.26
2019-03-13T20:24:08.639Z,5.28
2019-03-13T20:27:06.110Z,5.30
2019-03-13T20:30:05.697Z,5.32
2019-03-13T20:33:03.956Z,5.36
2019-03-13T20:36:03.950Z,5.35
2019-03-13T20:39:00.893Z,5.38
2019-03-13T20:41:58.544Z,5.40
2019-03-13T20:44:54.553Z,5.41
2019-03-13T20:47:51.894Z,5.45
2019-03-13T20:50:48.285Z,5.45
2019-03-13T20:53:45.119Z,5.42
2019-03-13T20:56:44.444Z,5.45
2019-03-13T20:59:40.122Z,5.45
2019-03-13T21:02:38.445Z,5.49
2019-03-13T21:05:35.164Z,5.49
2019-03-13T21:08:30.943Z,5.47
2019-03-13T21:11:27.518Z,5.41
2019-03-13T21:14:24.395Z,5.39
2019-03-13T21:17:21.038Z,5.37
2019-03-13T21:20:18.034Z,5.37
2019-03-13T21:23:13.719Z,5.36
2019-03-13T21:26:11.562Z,5.36
2019-03-13T21:29:07.267Z,5.41
2019-03-13T21:32:04.057Z,5.41
2019-03-13T21:35:00.710Z,5.36
2019-03-13T21:37:57.424Z,5.34
2019-03-13T21:40:56.493Z,5.31
2019-03-13T21:43:53.233Z,5.23
2019-03-13T21:46:51.233Z,5.16
2019-03-13T21:49:48.087Z,5.07
2019-03-13T21:52:44.907Z,4.99
2019-03-13T21:55:40.495Z,4.95
2019-03-13T21:58:37.454Z,4.92
2019-03-13T22:01:33.666Z,4.89
2019-03-13T22:04:29.576Z,4.90
2019-03-13T22:07:25.576Z,4.91
2019-03-13T22:10:23.184Z,4.89
2019-03-13T22:13:18.780Z,4.90
2019-03-13T22:16:16.431Z,4.90
2019-03-13T22:19:11.966Z,4.89
2019-03-13T22:22:08.518Z,4.88
2019-03-13T22:25:03.162Z,4.89
2019-03-13T22:27:59.884Z,4.89
2019-03-13T22:30:55.821Z,4.87
2019-03-13T22:33:52.381Z,4.80
2019-03-13T22:36:50.027Z,4.79
2019-03-13T22:39:45.176Z,4.79
2019-03-13T22:42:42.007Z,4.81
2019-03-13T22:45:37.544Z,4.83
2019-03-13T22:48:34.565Z,4.84
2019-03-13T22:51:31.103Z,4.86
2019-03-13T22:54:26.741Z,4.87
2019-03-13T22:57:24.526Z,4.90
2019-03-13T23:00:20.215Z,4.89
2019-03-13T23:03:18.337Z,4.86
2019-03-13T23:06:13.867Z,4.80
2019-03-13T23:09:11.301Z,4.79
2019-03-13T23:12:07.951Z,4.80
2019-03-13T23:15:05.617Z,4.79
2019-03-13T23:18:00.170Z,4.79
2019-03-13T23:20:57.565Z,4.76
2019-03-13T23:23:53.351Z,4.73
2019-03-13T23:26:49.892Z,4.74
2019-03-13T23:29:45.637Z,4.72
2019-03-13T23:32:42.349Z,4.71
2019-03-13T23:35:38.041Z,4.72
2019-03-13T23:38:35.404Z,4.73
2019-03-13T23:41:32.492Z,4.73
2019-03-13T23:44:29.898Z,4.74
2019-03-13T23:47:27.536Z,4.70
2019-03-13T23:50:23.268Z,4.70
2019-03-13T23:53:20.021Z,4.71
2019-03-13T23:56:15.738Z,4.71
2019-03-13T23:59:12.519Z,4.70
